KFFL/FFL METAR and TAF weather

Enter ICAO airport designator
Station Type Date Time Source
KFFL METAR 2019/04/23 04:55 UTC NOAA

KFFL 230455Z AUTO 29015G21KT 10SM OVC017 12/08 A2998 RMK AO2 PWINO


Station Type Date Time Source
KFFL Decoded METAR 2019/04/23 04:55 UTC NOAA

Fair Field, IA, United States (KFFL) 41-03N 091-59W
Apr 23, 2019 - 12:55 AM EDT / 2019.04.23 0455 UTC
Wind: from the WNW (290 degrees) at 17 MPH (15 KT) gusting to 24 MPH (21 KT):0
Visibility: 10 mile(s):0
Sky conditions: overcast
Temperature: 53 F (12 C)
Dew Point: 46 F (8 C)
Relative Humidity: 76%
Pressure (altimeter): 29.98 in. Hg (1015 hPa)
ob: KFFL 230455Z AUTO 29015G21KT 10SM OVC017 12/08 A2998 RMK AO2 PWINO
cycle: 5

Station Type Date Time Source
KFFL TAF UTC NOAA

Error!

Example: see airport list